sensor_id;sensor_type;location;lat;lon;timestamp;P1;durP1;ratioP1;P2;durP2;ratioP2
67090;SDS011;54007;55.818;49.058;2023-06-14T08:32:56;8.05;;;2.55;;
67090;SDS011;54007;55.818;49.058;2023-06-14T08:35:28;7.97;;;3.17;;
67090;SDS011;54007;55.818;49.058;2023-06-14T08:37:54;9.40;;;2.52;;
67090;SDS011;54007;55.818;49.058;2023-06-14T08:40:23;6.10;;;2.47;;
67090;SDS011;54007;55.818;49.058;2023-06-14T08:42:52;7.60;;;2.87;;
67090;SDS011;54007;55.818;49.058;2023-06-14T08:45:18;6.50;;;3.08;;
67090;SDS011;54007;55.818;49.058;2023-06-14T08:47:43;7.80;;;2.87;;
67090;SDS011;54007;55.818;49.058;2023-06-14T08:50:09;9.17;;;3.13;;
67090;SDS011;54007;55.818;49.058;2023-06-14T08:52:36;9.10;;;2.85;;
67090;SDS011;54007;55.818;49.058;2023-06-14T08:55:01;10.48;;;2.60;;
67090;SDS011;54007;55.818;49.058;2023-06-14T08:57:26;11.50;;;5.70;;
67090;SDS011;54007;55.818;49.058;2023-06-14T08:59:52;12.98;;;4.87;;
67090;SDS011;54007;55.818;49.058;2023-06-14T09:02:18;9.78;;;2.83;;
67090;SDS011;54007;55.818;49.058;2023-06-14T09:04:44;7.27;;;2.50;;
67090;SDS011;54007;55.818;49.058;2023-06-14T09:07:10;7.17;;;2.70;;
67090;SDS011;54007;55.818;49.058;2023-06-14T09:09:39;6.90;;;2.60;;
67090;SDS011;54007;55.818;49.058;2023-06-14T09:12:04;6.33;;;3.07;;
67090;SDS011;54007;55.818;49.058;2023-06-14T09:14:28;10.63;;;3.22;;
67090;SDS011;54007;55.818;49.058;2023-06-14T09:16:54;7.65;;;2.80;;
67090;SDS011;54007;55.818;49.058;2023-06-14T09:19:25;9.57;;;2.70;;
67090;SDS011;54007;55.818;49.058;2023-06-14T09:21:52;8.90;;;2.95;;
67090;SDS011;54007;55.818;49.058;2023-06-14T09:24:17;6.30;;;2.55;;
67090;SDS011;54007;55.818;49.058;2023-06-14T09:26:43;5.37;;;2.27;;
67090;SDS011;54007;55.818;49.058;2023-06-14T09:29:09;6.67;;;2.60;;
67090;SDS011;54007;55.818;49.058;2023-06-14T09:31:35;6.65;;;2.40;;
67090;SDS011;54007;55.818;49.058;2023-06-14T09:34:01;7.27;;;2.50;;
67090;SDS011;54007;55.818;49.058;2023-06-14T09:36:26;7.17;;;2.60;;
67090;SDS011;54007;55.818;49.058;2023-06-14T09:38:53;5.80;;;2.50;;
67090;SDS011;54007;55.818;49.058;2023-06-14T09:41:18;6.33;;;2.60;;
67090;SDS011;54007;55.818;49.058;2023-06-14T09:43:44;6.60;;;2.50;;
67090;SDS011;54007;55.818;49.058;2023-06-14T09:46:17;7.00;;;2.60;;
67090;SDS011;54007;55.818;49.058;2023-06-14T09:48:36;6.78;;;2.62;;
67090;SDS011;54007;55.818;49.058;2023-06-14T09:51:06;6.90;;;2.90;;
67090;SDS011;54007;55.818;49.058;2023-06-14T09:53:38;6.78;;;2.80;;
67090;SDS011;54007;55.818;49.058;2023-06-14T09:56:04;8.20;;;3.27;;
67090;SDS011;54007;55.818;49.058;2023-06-14T09:58:30;10.63;;;2.70;;
67090;SDS011;54007;55.818;49.058;2023-06-14T10:00:55;5.60;;;2.70;;
67090;SDS011;54007;55.818;49.058;2023-06-14T10:03:24;8.53;;;2.70;;
67090;SDS011;54007;55.818;49.058;2023-06-14T10:05:47;7.13;;;3.00;;
67090;SDS011;54007;55.818;49.058;2023-06-14T10:08:14;8.25;;;3.00;;
67090;SDS011;54007;55.818;49.058;2023-06-14T10:10:39;7.25;;;2.70;;
67090;SDS011;54007;55.818;49.058;2023-06-14T10:13:05;8.70;;;3.27;;
67090;SDS011;54007;55.818;49.058;2023-06-14T10:15:32;7.85;;;3.45;;
67090;SDS011;54007;55.818;49.058;2023-06-14T10:17:59;6.42;;;3.60;;
67090;SDS011;54007;55.818;49.058;2023-06-14T10:20:30;5.67;;;2.70;;
67090;SDS011;54007;55.818;49.058;2023-06-14T10:23:13;9.58;;;3.00;;
67090;SDS011;54007;55.818;49.058;2023-06-14T10:25:27;7.33;;;3.30;;
67090;SDS011;54007;55.818;49.058;2023-06-14T10:27:52;9.43;;;3.12;;
67090;SDS011;54007;55.818;49.058;2023-06-14T10:30:18;8.40;;;3.10;;
67090;SDS011;54007;55.818;49.058;2023-06-14T10:33:03;5.30;;;2.62;;
67090;SDS011;54007;55.818;49.058;2023-06-14T10:35:28;7.92;;;2.62;;
67090;SDS011;54007;55.818;49.058;2023-06-14T10:37:54;8.13;;;3.00;;
67090;SDS011;54007;55.818;49.058;2023-06-14T10:40:29;8.95;;;3.00;;
67090;SDS011;54007;55.818;49.058;2023-06-14T10:42:55;8.00;;;2.75;;
67090;SDS011;54007;55.818;49.058;2023-06-14T10:45:21;7.97;;;2.90;;
67090;SDS011;54007;55.818;49.058;2023-06-14T10:47:47;6.87;;;2.80;;
67090;SDS011;54007;55.818;49.058;2023-06-14T10:50:13;7.78;;;3.05;;
67090;SDS011;54007;55.818;49.058;2023-06-14T10:52:39;8.60;;;2.67;;
67090;SDS011;54007;55.818;49.058;2023-06-14T10:55:05;7.30;;;2.50;;
67090;SDS011;54007;55.818;49.058;2023-06-14T10:57:30;6.28;;;2.87;;
67090;SDS011;54007;55.818;49.058;2023-06-14T10:59:59;10.97;;;2.80;;
67090;SDS011;54007;55.818;49.058;2023-06-14T11:02:43;9.15;;;2.87;;
67090;SDS011;54007;55.818;49.058;2023-06-14T11:04:59;6.83;;;2.55;;
67090;SDS011;54007;55.818;49.058;2023-06-14T11:10:12;7.92;;;3.10;;
67090;SDS011;54007;55.818;49.058;2023-06-14T11:12:35;6.05;;;2.92;;
67090;SDS011;54007;55.818;49.058;2023-06-14T11:15:01;7.37;;;3.12;;
67090;SDS011;54007;55.818;49.058;2023-06-14T11:17:27;7.13;;;2.70;;
67090;SDS011;54007;55.818;49.058;2023-06-14T11:20:11;7.47;;;2.90;;
67090;SDS011;54007;55.818;49.058;2023-06-14T11:22:43;6.42;;;2.62;;
67090;SDS011;54007;55.818;49.058;2023-06-14T11:25:09;7.10;;;2.80;;
67090;SDS011;54007;55.818;49.058;2023-06-14T11:27:35;7.55;;;2.80;;
67090;SDS011;54007;55.818;49.058;2023-06-14T11:30:01;6.90;;;2.95;;
67090;SDS011;54007;55.818;49.058;2023-06-14T11:32:27;6.77;;;2.90;;
67090;SDS011;54007;55.818;49.058;2023-06-14T11:34:52;6.58;;;2.92;;
67090;SDS011;54007;55.818;49.058;2023-06-14T11:37:18;8.58;;;3.00;;
67090;SDS011;54007;55.818;49.058;2023-06-14T11:39:44;8.20;;;3.37;;
67090;SDS011;54007;55.818;49.058;2023-06-14T11:42:13;9.03;;;2.80;;
67090;SDS011;54007;55.818;49.058;2023-06-14T11:44:36;7.30;;;3.07;;
67090;SDS011;54007;55.818;49.058;2023-06-14T11:47:03;7.35;;;3.22;;
67090;SDS011;54007;55.818;49.058;2023-06-14T11:49:27;6.12;;;2.90;;
67090;SDS011;54007;55.818;49.058;2023-06-14T11:51:53;8.07;;;2.90;;
67090;SDS011;54007;55.818;49.058;2023-06-14T11:54:19;8.43;;;2.83;;
67090;SDS011;54007;55.818;49.058;2023-06-14T11:56:45;8.20;;;2.90;;
67090;SDS011;54007;55.818;49.058;2023-06-14T11:59:11;7.55;;;2.92;;
67090;SDS011;54007;55.818;49.058;2023-06-14T12:01:37;9.78;;;3.05;;
67090;SDS011;54007;55.818;49.058;2023-06-14T12:04:03;9.10;;;3.43;;
67090;SDS011;54007;55.818;49.058;2023-06-14T12:06:29;7.08;;;3.10;;
67090;SDS011;54007;55.818;49.058;2023-06-14T12:08:57;7.60;;;3.40;;
67090;SDS011;54007;55.818;49.058;2023-06-14T12:11:23;7.03;;;2.70;;
67090;SDS011;54007;55.818;49.058;2023-06-14T12:13:49;6.03;;;2.75;;
67090;SDS011;54007;55.818;49.058;2023-06-14T12:16:15;7.05;;;2.65;;
67090;SDS011;54007;55.818;49.058;2023-06-14T12:18:41;6.87;;;3.03;;
67090;SDS011;54007;55.818;49.058;2023-06-14T12:21:07;6.80;;;3.00;;
67090;SDS011;54007;55.818;49.058;2023-06-14T12:23:44;8.10;;;3.20;;
67090;SDS011;54007;55.818;49.058;2023-06-14T12:26:19;13.10;;;3.00;;
67090;SDS011;54007;55.818;49.058;2023-06-14T12:28:41;7.95;;;2.83;;
67090;SDS011;54007;55.818;49.058;2023-06-14T12:31:06;8.48;;;2.80;;
67090;SDS011;54007;55.818;49.058;2023-06-14T12:33:32;9.27;;;2.80;;
67090;SDS011;54007;55.818;49.058;2023-06-14T12:35:58;6.87;;;2.90;;
67090;SDS011;54007;55.818;49.058;2023-06-14T12:38:24;9.63;;;2.80;;
67090;SDS011;54007;55.818;49.058;2023-06-14T12:40:50;6.47;;;2.90;;
67090;SDS011;54007;55.818;49.058;2023-06-14T12:43:16;7.40;;;3.10;;
67090;SDS011;54007;55.818;49.058;2023-06-14T12:45:41;6.93;;;3.00;;
67090;SDS011;54007;55.818;49.058;2023-06-14T12:48:07;8.90;;;3.00;;
67090;SDS011;54007;55.818;49.058;2023-06-14T12:50:33;7.10;;;2.98;;
67090;SDS011;54007;55.818;49.058;2023-06-14T12:52:59;9.47;;;2.83;;
67090;SDS011;54007;55.818;49.058;2023-06-14T12:55:25;6.55;;;2.95;;
67090;SDS011;54007;55.818;49.058;2023-06-14T12:57:51;9.57;;;3.17;;
67090;SDS011;54007;55.818;49.058;2023-06-14T13:00:17;7.12;;;3.17;;
67090;SDS011;54007;55.818;49.058;2023-06-14T13:02:43;6.85;;;2.90;;
67090;SDS011;54007;55.818;49.058;2023-06-14T13:05:08;9.23;;;3.40;;
67090;SDS011;54007;55.818;49.058;2023-06-14T13:07:34;11.15;;;3.35;;
67090;SDS011;54007;55.818;49.058;2023-06-14T13:10:01;6.85;;;2.83;;
67090;SDS011;54007;55.818;49.058;2023-06-14T13:12:27;5.83;;;2.63;;
67090;SDS011;54007;55.818;49.058;2023-06-14T13:14:53;6.60;;;3.20;;
67090;SDS011;54007;55.818;49.058;2023-06-14T13:17:19;8.25;;;3.10;;
67090;SDS011;54007;55.818;49.058;2023-06-14T13:19:45;9.57;;;3.20;;
67090;SDS011;54007;55.818;49.058;2023-06-14T13:22:10;7.70;;;3.12;;
67090;SDS011;54007;55.818;49.058;2023-06-14T13:24:36;9.43;;;3.05;;
67090;SDS011;54007;55.818;49.058;2023-06-14T13:27:02;7.13;;;3.33;;
67090;SDS011;54007;55.818;49.058;2023-06-14T13:29:28;6.87;;;3.10;;
67090;SDS011;54007;55.818;49.058;2023-06-14T13:31:54;5.78;;;3.10;;
67090;SDS011;54007;55.818;49.058;2023-06-14T13:34:20;8.97;;;3.30;;
67090;SDS011;54007;55.818;49.058;2023-06-14T13:36:46;8.78;;;3.40;;
67090;SDS011;54007;55.818;49.058;2023-06-14T13:39:11;7.00;;;3.47;;
67090;SDS011;54007;55.818;49.058;2023-06-14T13:41:41;7.42;;;2.95;;
67090;SDS011;54007;55.818;49.058;2023-06-14T13:44:11;7.50;;;3.50;;
67090;SDS011;54007;55.818;49.058;2023-06-14T13:46:37;7.03;;;3.30;;
67090;SDS011;54007;55.818;49.058;2023-06-14T13:49:03;7.03;;;3.05;;
67090;SDS011;54007;55.818;49.058;2023-06-14T13:51:29;6.90;;;3.30;;
67090;SDS011;54007;55.818;49.058;2023-06-14T13:53:54;8.57;;;3.30;;
67090;SDS011;54007;55.818;49.058;2023-06-14T13:56:20;11.57;;;3.12;;
67090;SDS011;54007;55.818;49.058;2023-06-14T13:58:46;6.90;;;3.20;;
67090;SDS011;54007;55.818;49.058;2023-06-14T14:01:12;8.13;;;3.08;;
67090;SDS011;54007;55.818;49.058;2023-06-14T14:03:38;6.42;;;3.20;;
67090;SDS011;54007;55.818;49.058;2023-06-14T14:06:04;8.63;;;3.23;;
67090;SDS011;54007;55.818;49.058;2023-06-14T14:08:29;10.03;;;3.62;;
67090;SDS011;54007;55.818;49.058;2023-06-14T14:10:55;6.73;;;3.40;;
67090;SDS011;54007;55.818;49.058;2023-06-14T14:13:21;7.83;;;2.85;;
67090;SDS011;54007;55.818;49.058;2023-06-14T14:15:47;8.83;;;3.47;;
67090;SDS011;54007;55.818;49.058;2023-06-14T14:18:13;6.80;;;3.10;;
67090;SDS011;54007;55.818;49.058;2023-06-14T14:20:42;6.58;;;2.83;;
67090;SDS011;54007;55.818;49.058;2023-06-14T14:23:04;10.43;;;2.93;;
67090;SDS011;54007;55.818;49.058;2023-06-14T14:25:30;9.33;;;3.12;;
67090;SDS011;54007;55.818;49.058;2023-06-14T14:27:56;7.83;;;3.55;;
67090;SDS011;54007;55.818;49.058;2023-06-14T14:30:22;6.17;;;2.73;;
67090;SDS011;54007;55.818;49.058;2023-06-14T14:32:48;6.65;;;2.90;;
67090;SDS011;54007;55.818;49.058;2023-06-14T14:35:14;6.87;;;2.90;;
67090;SDS011;54007;55.818;49.058;2023-06-14T14:37:39;6.92;;;2.70;;
67090;SDS011;54007;55.818;49.058;2023-06-14T14:40:05;9.25;;;3.00;;
67090;SDS011;54007;55.818;49.058;2023-06-14T14:42:31;6.00;;;2.90;;
67090;SDS011;54007;55.818;49.058;2023-06-14T14:44:57;8.65;;;3.00;;
67090;SDS011;54007;55.818;49.058;2023-06-14T14:47:23;10.32;;;2.95;;
67090;SDS011;54007;55.818;49.058;2023-06-14T14:49:49;9.00;;;2.90;;
67090;SDS011;54007;55.818;49.058;2023-06-14T14:52:15;7.12;;;3.20;;
67090;SDS011;54007;55.818;49.058;2023-06-14T14:54:41;6.75;;;3.00;;
67090;SDS011;54007;55.818;49.058;2023-06-14T14:57:08;6.10;;;2.80;;
67090;SDS011;54007;55.818;49.058;2023-06-14T14:59:38;7.40;;;2.80;;
67090;SDS011;54007;55.818;49.058;2023-06-14T15:02:04;9.40;;;2.67;;
67090;SDS011;54007;55.818;49.058;2023-06-14T15:04:29;6.57;;;2.97;;
67090;SDS011;54007;55.818;49.058;2023-06-14T15:06:55;8.70;;;3.25;;
67090;SDS011;54007;55.818;49.058;2023-06-14T15:09:21;9.50;;;3.15;;
67090;SDS011;54007;55.818;49.058;2023-06-14T15:11:47;5.77;;;2.67;;
67090;SDS011;54007;55.818;49.058;2023-06-14T15:14:13;8.75;;;3.37;;
67090;SDS011;54007;55.818;49.058;2023-06-14T15:16:39;7.93;;;2.80;;
67090;SDS011;54007;55.818;49.058;2023-06-14T15:19:04;6.50;;;3.00;;
67090;SDS011;54007;55.818;49.058;2023-06-14T15:21:30;8.80;;;3.05;;
67090;SDS011;54007;55.818;49.058;2023-06-14T15:23:56;9.13;;;2.97;;
67090;SDS011;54007;55.818;49.058;2023-06-14T15:26:25;8.75;;;2.80;;
67090;SDS011;54007;55.818;49.058;2023-06-14T15:28:48;9.00;;;2.97;;
67090;SDS011;54007;55.818;49.058;2023-06-14T15:31:14;11.38;;;2.85;;
67090;SDS011;54007;55.818;49.058;2023-06-14T15:33:39;11.10;;;3.30;;
67090;SDS011;54007;55.818;49.058;2023-06-14T15:36:05;9.90;;;2.80;;
67090;SDS011;54007;55.818;49.058;2023-06-14T15:38:31;10.68;;;3.00;;
67090;SDS011;54007;55.818;49.058;2023-06-14T15:40:57;12.47;;;3.08;;
67090;SDS011;54007;55.818;49.058;2023-06-14T15:43:23;8.80;;;3.50;;
67090;SDS011;54007;55.818;49.058;2023-06-14T15:45:50;13.85;;;3.47;;
67090;SDS011;54007;55.818;49.058;2023-06-14T15:48:16;10.05;;;3.20;;
67090;SDS011;54007;55.818;49.058;2023-06-14T15:50:42;8.70;;;3.17;;
67090;SDS011;54007;55.818;49.058;2023-06-14T15:53:07;11.00;;;3.12;;
67090;SDS011;54007;55.818;49.058;2023-06-14T15:55:33;10.53;;;3.03;;
67090;SDS011;54007;55.818;49.058;2023-06-14T15:57:59;8.45;;;3.12;;
67090;SDS011;54007;55.818;49.058;2023-06-14T16:00:25;11.53;;;3.65;;
67090;SDS011;54007;55.818;49.058;2023-06-14T16:02:53;7.63;;;3.43;;
67090;SDS011;54007;55.818;49.058;2023-06-14T16:05:17;10.82;;;3.60;;
67090;SDS011;54007;55.818;49.058;2023-06-14T16:07:42;10.90;;;3.10;;
67090;SDS011;54007;55.818;49.058;2023-06-14T16:10:08;6.35;;;3.30;;
67090;SDS011;54007;55.818;49.058;2023-06-14T16:12:34;13.35;;;3.75;;
67090;SDS011;54007;55.818;49.058;2023-06-14T16:15:00;7.47;;;3.47;;
67090;SDS011;54007;55.818;49.058;2023-06-14T16:17:26;10.75;;;3.92;;
67090;SDS011;54007;55.818;49.058;2023-06-14T16:19:58;12.63;;;4.25;;
67090;SDS011;54007;55.818;49.058;2023-06-14T16:22:24;13.37;;;4.10;;
67090;SDS011;54007;55.818;49.058;2023-06-14T16:24:50;9.33;;;3.67;;
67090;SDS011;54007;55.818;49.058;2023-06-14T16:27:16;12.18;;;3.75;;
67090;SDS011;54007;55.818;49.058;2023-06-14T16:29:44;14.50;;;4.60;;
67090;SDS011;54007;55.818;49.058;2023-06-14T16:32:08;12.55;;;4.40;;
67090;SDS011;54007;55.818;49.058;2023-06-14T16:34:33;10.40;;;4.58;;
67090;SDS011;54007;55.818;49.058;2023-06-14T16:36:59;12.60;;;4.77;;
67090;SDS011;54007;55.818;49.058;2023-06-14T16:39:25;11.30;;;5.42;;
67090;SDS011;54007;55.818;49.058;2023-06-14T16:41:51;14.50;;;5.37;;
67090;SDS011;54007;55.818;49.058;2023-06-14T16:44:17;12.93;;;5.22;;
67090;SDS011;54007;55.818;49.058;2023-06-14T16:46:43;15.98;;;6.10;;
67090;SDS011;54007;55.818;49.058;2023-06-14T16:49:08;17.27;;;6.20;;
67090;SDS011;54007;55.818;49.058;2023-06-14T16:51:34;16.65;;;6.75;;
67090;SDS011;54007;55.818;49.058;2023-06-14T16:54:03;25.37;;;7.50;;
67090;SDS011;54007;55.818;49.058;2023-06-14T16:56:26;19.95;;;7.58;;
67090;SDS011;54007;55.818;49.058;2023-06-14T16:58:52;18.27;;;7.17;;
67090;SDS011;54007;55.818;49.058;2023-06-14T17:01:18;20.53;;;6.00;;
67090;SDS011;54007;55.818;49.058;2023-06-14T17:03:43;15.25;;;6.22;;
67090;SDS011;54007;55.818;49.058;2023-06-14T17:06:10;19.07;;;6.67;;
67090;SDS011;54007;55.818;49.058;2023-06-14T17:08:35;25.48;;;7.25;;
67090;SDS011;54007;55.818;49.058;2023-06-14T17:11:02;21.68;;;7.00;;
67090;SDS011;54007;55.818;49.058;2023-06-14T17:13:31;20.17;;;7.12;;
67090;SDS011;54007;55.818;49.058;2023-06-14T17:15:53;20.50;;;7.20;;
67090;SDS011;54007;55.818;49.058;2023-06-14T17:18:19;18.37;;;6.67;;
67090;SDS011;54007;55.818;49.058;2023-06-14T17:20:45;18.77;;;6.92;;
67090;SDS011;54007;55.818;49.058;2023-06-14T17:23:11;18.90;;;6.27;;
67090;SDS011;54007;55.818;49.058;2023-06-14T17:25:37;16.80;;;6.75;;
67090;SDS011;54007;55.818;49.058;2023-06-14T17:28:03;17.65;;;6.12;;
67090;SDS011;54007;55.818;49.058;2023-06-14T17:30:31;13.27;;;5.30;;
67090;SDS011;54007;55.818;49.058;2023-06-14T17:32:57;18.07;;;5.37;;
67090;SDS011;54007;55.818;49.058;2023-06-14T17:35:23;14.63;;;5.12;;
67090;SDS011;54007;55.818;49.058;2023-06-14T17:37:55;16.33;;;5.17;;
67090;SDS011;54007;55.818;49.058;2023-06-14T17:40:21;16.80;;;5.20;;
67090;SDS011;54007;55.818;49.058;2023-06-14T17:42:47;11.55;;;4.62;;
67090;SDS011;54007;55.818;49.058;2023-06-14T17:45:13;11.80;;;4.53;;
67090;SDS011;54007;55.818;49.058;2023-06-14T17:47:38;17.00;;;4.95;;
67090;SDS011;54007;55.818;49.058;2023-06-14T17:50:07;15.37;;;5.00;;
67090;SDS011;54007;55.818;49.058;2023-06-14T17:52:33;12.63;;;4.97;;
67090;SDS011;54007;55.818;49.058;2023-06-14T17:54:59;12.25;;;4.50;;
67090;SDS011;54007;55.818;49.058;2023-06-14T17:57:25;15.03;;;5.13;;
67090;SDS011;54007;55.818;49.058;2023-06-14T17:59:51;14.47;;;5.05;;
67090;SDS011;54007;55.818;49.058;2023-06-14T18:02:16;18.48;;;4.75;;
67090;SDS011;54007;55.818;49.058;2023-06-14T18:04:42;15.20;;;5.40;;
67090;SDS011;54007;55.818;49.058;2023-06-14T18:07:08;20.92;;;5.12;;
67090;SDS011;54007;55.818;49.058;2023-06-14T18:09:34;14.43;;;5.20;;
67090;SDS011;54007;55.818;49.058;2023-06-14T18:12:00;12.55;;;5.10;;
67090;SDS011;54007;55.818;49.058;2023-06-14T18:14:26;13.35;;;4.60;;
67090;SDS011;54007;55.818;49.058;2023-06-14T18:16:51;12.03;;;4.30;;
67090;SDS011;54007;55.818;49.058;2023-06-14T18:19:17;14.20;;;4.80;;
67090;SDS011;54007;55.818;49.058;2023-06-14T18:21:46;14.40;;;4.67;;
67090;SDS011;54007;55.818;49.058;2023-06-14T18:24:12;16.75;;;4.83;;
67090;SDS011;54007;55.818;49.058;2023-06-14T18:26:37;17.07;;;5.15;;
67090;SDS011;54007;55.818;49.058;2023-06-14T18:29:03;13.67;;;4.60;;
67090;SDS011;54007;55.818;49.058;2023-06-14T18:31:29;17.35;;;4.45;;
67090;SDS011;54007;55.818;49.058;2023-06-14T18:33:55;12.90;;;4.47;;
